1861 Tropical Storm NOT_NAMED (1861290N25292)


IBTrACS version v04r00. Visit IBTrACS website for data access.
Please direct all questions to the IBTrACS Q and A forum

Storm track - Intensity - Wind Radii - Intensity Data - Source Data - All data

Summary Information

Storm ID 1861290N25292
Start Oct 16 12Z
Max Intensity 45 kt (Oct 18 00Z)
End Oct 22 12Z
ATCF IDs
Track status Best track data.

Storm track plot

Map of storm track

Intensity plots

Map of storm track

Radial wind information

No radial wind information for this storm


Position and Intensity Table

BASIN ISO_TIME_________ NATURE LAT LON MLC WIND
degrees north degrees east kts
NA 1861-10-16 12:00:00 TS 25.00 -68.50 35
NA 15:00:00 TS 25.26 -69.10 35
NA 18:00:00 TS 25.50 -69.70 35
NA 21:00:00 TS 25.70 -70.30 35
NA 1861-10-17 00:00:00 TS 25.90 -70.90 35
NA 03:00:00 TS 26.15 -71.51 37
NA 06:00:00 TS 26.40 -72.10 40
NA 09:00:00 TS 26.58 -72.68 40
NA 12:00:00 TS 26.80 -73.20 40
NA 15:00:00 TS 27.13 -73.62 40
NA 18:00:00 TS 27.50 -74.00 40
NA 21:00:00 TS 27.85 -74.40 42
NA 1861-10-18 00:00:00 TS 28.20 -74.80 45
NA 03:00:00 TS 28.56 -75.20 45
NA 06:00:00 TS 28.90 -75.60 45
NA 09:00:00 TS 29.22 -76.04 45
NA 12:00:00 TS 29.50 -76.40 45
NA 15:00:00 TS 29.76 -76.55 45
NA 18:00:00 TS 30.00 -76.60 45
NA 21:00:00 TS 30.25 -76.71 45
NA 1861-10-19 00:00:00 TS 30.50 -76.80 45
NA 03:00:00 TS 30.75 -76.82 45
NA 06:00:00 TS 31.00 -76.80 45
NA 09:00:00 TS 31.26 -76.80 45
NA 12:00:00 TS 31.50 -76.80 45
NA 15:00:00 TS 31.71 -76.81 45
NA 18:00:00 TS 31.90 -76.80 45
NA 21:00:00 TS 32.10 -76.76 45
NA 1861-10-20 00:00:00 TS 32.30 -76.70 45
NA 03:00:00 TS 32.51 -76.65 45
NA 06:00:00 TS 32.70 -76.60 45
NA 09:00:00 TS 32.84 -76.55 45
NA 12:00:00 TS 33.00 -76.50 45
NA 15:00:00 TS 33.24 -76.45 45
NA 18:00:00 TS 33.50 -76.40 45
NA 21:00:00 TS 33.70 -76.36 45
NA 1861-10-21 00:00:00 TS 33.90 -76.30 45
NA 03:00:00 TS 34.15 -76.16 45
NA 06:00:00 TS 34.40 -76.00 45
NA 09:00:00 TS 34.59 -75.98 45
NA 12:00:00 TS 34.80 -75.80 45
NA 15:00:00 TS 35.12 -75.20 42
NA 18:00:00 ET 35.40 -74.40 40
NA 21:00:00 ET 35.54 -73.65 40
NA 1861-10-22 00:00:00 ET 35.60 -72.90 40
NA 03:00:00 ET 35.61 -72.20 40
NA 06:00:00 ET 35.60 -71.50 40
NA 09:00:00 ET 35.60 -70.76 37
NA 12:00:00 ET 35.60 -70.00 35

Source Information

Agency Information
USA
TOKYO
CMA
HKO
NEWDELHI
REUNION
BOM
NADI
WELLINGTON
DS824
TD9636
TD9635
NEUMANN
MLC

All available IBTrACS Data

SEASON BASIN SUBBASIN ISO_TIME_________ NATURE LAT LON DIST2LAND LANDFALL IFLAG USA SSHS MLC LAT MLC LON MLC CLASS MLC WIND STORM SPEED STORM DIR
Year degrees north degrees east km km 1 degrees north degrees east kts kts degrees
1861 NA NA 1861-10-16 12:00:00 TS 25.00 -68.50 620 598 _____________O -1 25.00 -68.50 TS 35 12 296
1861 NA NA 15:00:00 TS 25.26 -69.10 607 586 _____________P -1 25.26 -69.10 TS 35 12 295
1861 NA NA 18:00:00 TS 25.50 -69.70 586 573 _____________O -1 25.50 -69.70 TS 35 12 292
1861 NA NA 21:00:00 TS 25.70 -70.30 573 565 _____________P -1 25.70 -70.30 TS 35 12 290
1861 NA NA 1861-10-17 00:00:00 TS 25.90 -70.90 567 563 _____________O -1 25.90 -70.90 TS 35 12 293
1861 NA NA 03:00:00 TS 26.15 -71.51 568 568 _____________P -1 26.15 -71.51 TS 37 12 295
1861 NA NA 06:00:00 TS 26.40 -72.10 588 558 _____________O -1 26.40 -72.10 TS 40 11 292
1861 NA NA 09:00:00 TS 26.58 -72.68 553 515 _____________P -1 26.58 -72.68 TS 40 11 292
1861 NA NA 12:00:00 TS 26.80 -73.20 515 492 _____________O -1 26.80 -73.20 TS 40 10 303
1861 NA NA 15:00:00 TS 27.13 -73.62 492 480 _____________P -1 27.13 -73.62 TS 40 10 315
1861 NA NA 18:00:00 TS 27.50 -74.00 480 468 _____________O -1 27.50 -74.00 TS 40 10 316
1861 NA NA 21:00:00 TS 27.85 -74.40 468 467 _____________P -1 27.85 -74.40 TS 42 10 315
1861 NA NA 1861-10-18 00:00:00 TS 28.20 -74.80 469 465 _____________O -1 28.20 -74.80 TS 45 10 315
1861 NA NA 03:00:00 TS 28.56 -75.20 479 473 _____________P -1 28.56 -75.20 TS 45 10 315
1861 NA NA 06:00:00 TS 28.90 -75.60 479 443 _____________O -1 28.90 -75.60 TS 45 10 312
1861 NA NA 09:00:00 TS 29.22 -76.04 444 413 _____________P -1 29.22 -76.04 TS 45 9 311
1861 NA NA 12:00:00 TS 29.50 -76.40 413 407 _____________O -1 29.50 -76.40 TS 45 7 321
1861 NA NA 15:00:00 TS 29.76 -76.55 414 405 _____________P -1 29.76 -76.55 TS 45 5 341
1861 NA NA 18:00:00 TS 30.00 -76.60 413 403 _____________O -1 30.00 -76.60 TS 45 5 343
1861 NA NA 21:00:00 TS 30.25 -76.71 394 371 _____________P -1 30.25 -76.71 TS 45 5 341
1861 NA NA 1861-10-19 00:00:00 TS 30.50 -76.80 371 354 _____________O -1 30.50 -76.80 TS 45 5 350
1861 NA NA 03:00:00 TS 30.75 -76.82 354 331 _____________P -1 30.75 -76.82 TS 45 5 2
1861 NA NA 06:00:00 TS 31.00 -76.80 331 316 _____________O -1 31.00 -76.80 TS 45 5 3
1861 NA NA 09:00:00 TS 31.26 -76.80 309 290 _____________P -1 31.26 -76.80 TS 45 5 2
1861 NA NA 12:00:00 TS 31.50 -76.80 290 269 _____________O -1 31.50 -76.80 TS 45 5 0
1861 NA NA 15:00:00 TS 31.71 -76.81 269 249 _____________P -1 31.71 -76.81 TS 45 4 0
1861 NA NA 18:00:00 TS 31.90 -76.80 249 229 _____________O -1 31.90 -76.80 TS 45 4 4
1861 NA NA 21:00:00 TS 32.10 -76.76 229 215 _____________P -1 32.10 -76.76 TS 45 4 12
1861 NA NA 1861-10-20 00:00:00 TS 32.30 -76.70 215 197 _____________O -1 32.30 -76.70 TS 45 4 12
1861 NA NA 03:00:00 TS 32.51 -76.65 203 186 _____________P -1 32.51 -76.65 TS 45 4 12
1861 NA NA 06:00:00 TS 32.70 -76.60 186 178 _____________O -1 32.70 -76.60 TS 45 3 15
1861 NA NA 09:00:00 TS 32.84 -76.55 185 171 _____________P -1 32.84 -76.55 TS 45 3 16
1861 NA NA 12:00:00 TS 33.00 -76.50 171 159 _____________O -1 33.00 -76.50 TS 45 4 11
1861 NA NA 15:00:00 TS 33.24 -76.45 159 134 _____________P -1 33.24 -76.45 TS 45 5 9
1861 NA NA 18:00:00 TS 33.50 -76.40 134 111 _____________O -1 33.50 -76.40 TS 45 5 9
1861 NA NA 21:00:00 TS 33.70 -76.36 111 91 _____________P -1 33.70 -76.36 TS 45 4 11
1861 NA NA 1861-10-21 00:00:00 TS 33.90 -76.30 91 72 _____________O -1 33.90 -76.30 TS 45 5 21
1861 NA NA 03:00:00 TS 34.15 -76.16 62 56 _____________P -1 34.15 -76.16 TS 45 6 26
1861 NA NA 06:00:00 TS 34.40 -76.00 56 43 _____________O -1 34.40 -76.00 TS 45 5 19
1861 NA NA 09:00:00 TS 34.59 -75.98 43 35 _____________P -1 34.59 -75.98 TS 45 4 22
1861 NA NA 12:00:00 TS 34.80 -75.80 46 46 _____________O -1 34.80 -75.80 TS 45 8 51
1861 NA NA 15:00:00 TS 35.12 -75.20 71 70 _____________P -1 35.12 -75.20 TS 42 13 62
1861 NA NA 18:00:00 ET 35.40 -74.40 108 108 _____________O -1 35.40 -74.40 EX 40 13 71
1861 NA NA 21:00:00 ET 35.54 -73.65 174 172 _____________P -1 35.54 -73.65 EX 40 12 81
1861 NA NA 1861-10-22 00:00:00 ET 35.60 -72.90 235 235 _____________O -1 35.60 -72.90 EX 40 12 87
1861 NA NA 03:00:00 ET 35.61 -72.20 298 298 _____________P -1 35.61 -72.20 EX 40 11 90
1861 NA NA 06:00:00 ET 35.60 -71.50 361 361 _____________O -1 35.60 -71.50 EX 40 12 91
1861 NA NA 09:00:00 ET 35.60 -70.76 423 423 _____________P -1 35.60 -70.76 EX 37 12 90
1861 NA NA 12:00:00 ET 35.60 -70.00 495 _____________O -1 35.60 -70.00 EX 35 12 90